Time,TemperatureF,DewpointF,PressureIn,WindDirection,WindDirectionDegrees,WindSpeedMPH,WindSpeedGustMPH,Humidity,HourlyPrecipIn,Conditions,Clouds,dailyrainin,SoftwareType,DateUTC
2013-07-29 00:01:00,62.1,61.0,30.02,SSW,204,0.0,0.0,96,0.00,,,0.00,meteohub,2013-07-29 04:01:00,
2013-07-29 00:02:00,62.1,61.2,30.02,SSW,204,0.0,0.0,97,0.00,,,0.00,meteohub,2013-07-29 04:02:00,
2013-07-29 00:07:00,61.9,60.8,30.02,SSW,204,0.0,0.0,96,0.00,,,0.00,meteohub,2013-07-29 04:07:00,
2013-07-29 00:12:00,61.9,60.8,30.03,SSW,204,0.0,0.0,96,0.00,,,0.00,meteohub,2013-07-29 04:12:00,
2013-07-29 00:17:00,61.5,60.4,30.02,SSW,203,0.0,0.0,96,0.00,,,0.00,meteohub,2013-07-29 04:17:00,
2013-07-29 00:22:00,61.5,60.4,30.03,SSW,205,0.0,0.0,96,0.00,,,0.00,meteohub,2013-07-29 04:22:00,
2013-07-29 00:27:00,61.3,60.3,30.03,SSW,205,0.0,0.0,96,0.00,,,0.00,meteohub,2013-07-29 04:27:00,
2013-07-29 00:32:00,61.3,60.3,30.03,SSW,205,0.0,0.0,96,0.00,,,0.00,meteohub,2013-07-29 04:32:00,
2013-07-29 00:37:00,61.2,60.1,30.02,SSW,205,0.0,0.0,96,0.00,,,0.00,meteohub,2013-07-29 04:37:00,
2013-07-29 00:42:00,61.0,60.1,30.03,SSW,205,0.0,0.0,97,0.00,,,0.00,meteohub,2013-07-29 04:42:00,
2013-07-29 00:47:00,61.0,60.1,30.03,SSW,205,0.0,0.0,97,0.00,,,0.00,meteohub,2013-07-29 04:47:00,
2013-07-29 00:52:00,60.8,59.9,30.03,SSW,205,0.0,0.0,97,0.00,,,0.00,meteohub,2013-07-29 04:52:00,
2013-07-29 00:57:00,60.6,59.7,30.03,SSW,205,0.0,0.0,97,0.00,,,0.00,meteohub,2013-07-29 04:57:00,
2013-07-29 01:02:00,60.4,59.5,30.03,SSW,205,0.0,0.0,97,0.00,,,0.00,meteohub,2013-07-29 05:02:00,
2013-07-29 01:07:00,60.4,59.5,30.03,SSW,205,0.0,0.0,97,0.00,,,0.00,meteohub,2013-07-29 05:07:00,
2013-07-29 01:12:00,60.3,59.4,30.03,SSW,205,0.0,0.0,97,0.00,,,0.00,meteohub,2013-07-29 05:12:00,
2013-07-29 01:17:00,60.1,59.2,30.02,SSW,206,0.0,0.0,97,0.00,,,0.00,meteohub,2013-07-29 05:17:00,
2013-07-29 01:22:00,60.1,59.2,30.02,SSW,205,0.0,0.0,97,0.00,,,0.00,meteohub,2013-07-29 05:22:00,
2013-07-29 01:27:00,59.9,59.0,30.03,SSW,205,0.0,0.0,97,0.00,,,0.00,meteohub,2013-07-29 05:27:00,
2013-07-29 01:32:00,59.7,58.8,30.03,SSW,206,0.0,0.0,97,0.00,,,0.00,meteohub,2013-07-29 05:32:00,
2013-07-29 01:37:00,59.7,58.8,30.03,SSW,206,0.0,0.0,97,0.00,,,0.00,meteohub,2013-07-29 05:37:00,
2013-07-29 01:42:00,59.5,58.6,30.03,SSW,205,0.0,0.0,97,0.00,,,0.00,meteohub,2013-07-29 05:42:00,
2013-07-29 01:47:00,59.5,58.6,30.02,SSW,206,0.0,0.0,97,0.00,,,0.00,meteohub,2013-07-29 05:47:00,
2013-07-29 01:52:00,59.5,58.6,30.02,SSW,206,0.0,0.0,97,0.00,,,0.00,meteohub,2013-07-29 05:52:00,
2013-07-29 01:57:00,59.5,58.6,30.02,SSW,205,0.0,0.0,97,0.00,,,0.00,meteohub,2013-07-29 05:57:00,
2013-07-29 02:02:00,59.5,58.6,30.02,SSW,207,0.0,0.0,97,0.00,,,0.00,meteohub,2013-07-29 06:02:00,
2013-07-29 02:07:00,59.4,58.3,30.02,SSW,207,0.0,0.0,96,0.00,,,0.00,meteohub,2013-07-29 06:07:00,
2013-07-29 02:12:00,59.4,58.3,30.02,SSW,207,0.0,0.0,96,0.00,,,0.00,meteohub,2013-07-29 06:12:00,
2013-07-29 02:17:00,59.4,58.3,30.02,SSW,207,0.0,0.0,96,0.00,,,0.00,meteohub,2013-07-29 06:17:00,
2013-07-29 02:22:00,59.4,58.3,30.02,SSW,207,0.0,0.0,96,0.00,,,0.00,meteohub,2013-07-29 06:22:00,
2013-07-29 02:28:00,59.2,58.1,30.02,SSW,207,0.0,0.0,96,0.00,,,0.00,meteohub,2013-07-29 06:28:00,
2013-07-29 02:33:00,58.8,57.7,30.02,SSW,207,0.0,0.0,96,0.00,,,0.00,meteohub,2013-07-29 06:33:00,
2013-07-29 02:38:00,58.8,57.7,30.02,SSW,207,0.0,0.0,96,0.00,,,0.00,meteohub,2013-07-29 06:38:00,
2013-07-29 02:43:00,58.6,57.6,30.02,SSW,207,0.0,0.0,96,0.00,,,0.00,meteohub,2013-07-29 06:43:00,
2013-07-29 02:48:00,58.6,57.6,30.02,SSW,207,0.0,0.0,96,0.00,,,0.00,meteohub,2013-07-29 06:48:00,
2013-07-29 02:53:00,58.5,57.4,30.02,SSW,207,0.0,0.0,96,0.00,,,0.00,meteohub,2013-07-29 06:53:00,
2013-07-29 02:58:00,58.5,57.4,30.02,SSW,207,0.0,0.0,96,0.00,,,0.00,meteohub,2013-07-29 06:58:00,
2013-07-29 03:03:00,58.5,57.6,30.02,SSW,207,0.0,0.0,97,0.00,,,0.00,meteohub,2013-07-29 07:03:00,
2013-07-29 03:08:00,58.5,57.6,30.02,SSW,207,0.0,0.0,97,0.00,,,0.00,meteohub,2013-07-29 07:08:00,
2013-07-29 03:13:00,58.3,57.4,30.02,SSW,207,0.0,0.0,97,0.00,,,0.00,meteohub,2013-07-29 07:13:00,
2013-07-29 03:18:00,58.3,57.4,30.02,SSW,207,0.0,0.0,97,0.00,,,0.00,meteohub,2013-07-29 07:18:00,
2013-07-29 03:23:00,58.3,57.4,30.02,SSW,207,0.0,0.0,97,0.00,,,0.00,meteohub,2013-07-29 07:23:00,
2013-07-29 03:28:00,58.1,57.2,30.02,SSW,207,0.0,0.0,97,0.00,,,0.00,meteohub,2013-07-29 07:28:00,
2013-07-29 03:33:00,57.9,57.0,30.02,SSW,207,0.0,0.0,97,0.00,,,0.00,meteohub,2013-07-29 07:33:00,
2013-07-29 03:38:00,57.9,57.0,30.02,SSW,207,0.0,0.0,97,0.00,,,0.00,meteohub,2013-07-29 07:38:00,
2013-07-29 03:43:00,57.7,56.8,30.02,SSW,207,0.0,0.0,97,0.00,,,0.00,meteohub,2013-07-29 07:43:00,
2013-07-29 03:48:00,57.7,56.8,30.02,SSW,207,0.0,0.0,97,0.00,,,0.00,meteohub,2013-07-29 07:48:00,
2013-07-29 03:53:00,57.6,56.7,30.02,SSW,207,0.0,0.0,97,0.00,,,0.00,meteohub,2013-07-29 07:53:00,
2013-07-29 03:58:00,57.6,56.7,30.02,SSW,207,0.0,0.0,97,0.00,,,0.00,meteohub,2013-07-29 07:58:00,
2013-07-29 04:03:00,57.6,56.7,30.03,SSW,207,0.0,0.0,97,0.00,,,0.00,meteohub,2013-07-29 08:03:00,
2013-07-29 04:08:00,57.4,56.5,30.03,SSW,207,0.0,0.0,97,0.00,,,0.00,meteohub,2013-07-29 08:08:00,
2013-07-29 04:13:00,57.4,56.5,30.03,SSW,207,0.0,0.0,97,0.00,,,0.00,meteohub,2013-07-29 08:13:00,
2013-07-29 04:18:00,57.2,56.3,30.03,SE,127,1.0,0.0,97,0.00,,,0.00,meteohub,2013-07-29 08:18:00,
2013-07-29 04:23:00,57.6,57.0,30.03,SW,225,0.0,2.0,98,0.00,,,0.00,meteohub,2013-07-29 08:23:00,
2013-07-29 04:28:00,57.4,56.5,30.03,SSE,158,1.0,2.0,97,0.00,,,0.00,meteohub,2013-07-29 08:28:00,
2013-07-29 04:33:00,57.6,56.7,30.03,WSW,248,0.0,2.0,97,0.00,,,0.00,meteohub,2013-07-29 08:33:00,
2013-07-29 04:38:00,57.6,56.7,30.03,WSW,246,0.0,2.0,97,0.00,,,0.00,meteohub,2013-07-29 08:38:00,
2013-07-29 04:43:00,57.6,56.7,30.04,WSW,246,0.0,2.0,97,0.00,,,0.00,meteohub,2013-07-29 08:43:00,
2013-07-29 04:48:00,57.9,57.4,30.03,SW,214,0.0,0.0,98,0.00,,,0.00,meteohub,2013-07-29 08:48:00,
2013-07-29 04:53:00,57.7,57.2,30.04,North,6,0.0,1.0,98,0.00,,,0.00,meteohub,2013-07-29 08:53:00,
2013-07-29 04:58:00,57.6,56.7,30.04,ESE,115,0.0,1.0,97,0.00,,,0.00,meteohub,2013-07-29 08:58:00,
2013-07-29 05:03:00,57.4,56.5,30.04,SE,146,0.0,2.0,97,0.00,,,0.00,meteohub,2013-07-29 09:03:00,
2013-07-29 05:08:00,57.4,56.5,30.04,SSW,205,0.0,2.0,97,0.00,,,0.00,meteohub,2013-07-29 09:08:00,
2013-07-29 05:13:00,57.2,56.3,30.04,SSW,208,0.0,2.0,97,0.00,,,0.00,meteohub,2013-07-29 09:13:00,
2013-07-29 05:18:00,57.4,56.8,30.04,SSW,208,0.0,1.0,98,0.00,,,0.00,meteohub,2013-07-29 09:18:00,
2013-07-29 05:23:00,57.4,56.8,30.04,SSW,208,0.0,1.0,98,0.00,,,0.00,meteohub,2013-07-29 09:23:00,
2013-07-29 05:28:00,57.2,56.7,30.04,SSW,208,1.0,1.0,98,0.00,,,0.00,meteohub,2013-07-29 09:28:00,
2013-07-29 05:33:00,56.8,55.9,30.05,SSW,208,0.0,1.0,97,0.00,,,0.00,meteohub,2013-07-29 09:33:00,
2013-07-29 05:38:00,56.8,55.9,30.05,SSW,208,0.0,1.0,97,0.00,,,0.00,meteohub,2013-07-29 09:38:00,
2013-07-29 05:43:00,56.8,55.9,30.05,SSW,208,0.0,1.0,97,0.00,,,0.00,meteohub,2013-07-29 09:43:00,
2013-07-29 05:48:00,56.8,56.3,30.05,SSW,207,0.0,1.0,98,0.00,,,0.00,meteohub,2013-07-29 09:48:00,
2013-07-29 05:53:00,56.8,56.3,30.05,SSW,208,0.0,1.0,98,0.00,,,0.00,meteohub,2013-07-29 09:53:00,
2013-07-29 05:58:00,56.8,56.3,30.05,SSW,208,0.0,1.0,98,0.00,,,0.00,meteohub,2013-07-29 09:58:00,
2013-07-29 06:04:00,56.8,56.3,30.05,SSW,208,0.0,0.0,98,0.00,,,0.00,meteohub,2013-07-29 10:04:00,
2013-07-29 06:09:00,56.8,56.3,30.05,SSW,208,0.0,0.0,98,0.00,,,0.00,meteohub,2013-07-29 10:09:00,
2013-07-29 06:14:00,56.8,56.3,30.05,SSW,208,0.0,0.0,98,0.00,,,0.00,meteohub,2013-07-29 10:14:00,
2013-07-29 06:19:00,56.7,56.1,30.06,SSW,207,0.0,0.0,98,0.00,,,0.00,meteohub,2013-07-29 10:19:00,
2013-07-29 06:24:00,56.7,56.1,30.06,SSW,208,0.0,0.0,98,0.00,,,0.00,meteohub,2013-07-29 10:24:00,
2013-07-29 06:29:00,56.7,56.1,30.06,SSW,208,0.0,0.0,98,0.00,,,0.00,meteohub,2013-07-29 10:29:00,
2013-07-29 06:34:00,56.5,55.9,30.06,SSW,208,0.0,0.0,98,0.00,,,0.00,meteohub,2013-07-29 10:34:00,
2013-07-29 06:39:00,56.7,56.1,30.06,SSW,208,0.0,0.0,98,0.00,,,0.00,meteohub,2013-07-29 10:39:00,
2013-07-29 06:44:00,56.8,56.3,30.06,SSW,208,0.0,1.0,98,0.00,,,0.00,meteohub,2013-07-29 10:44:00,
2013-07-29 06:49:00,56.8,56.3,30.06,SSW,208,0.0,1.0,98,0.00,,,0.00,meteohub,2013-07-29 10:49:00,
2013-07-29 06:54:00,56.7,56.1,30.06,SSW,208,0.0,1.0,98,0.00,,,0.00,meteohub,2013-07-29 10:54:00,
2013-07-29 06:59:00,56.7,56.1,30.06,SSW,208,0.0,0.0,98,0.00,,,0.00,meteohub,2013-07-29 10:59:00,
2013-07-29 07:04:00,56.7,56.1,30.07,SSW,208,0.0,0.0,98,0.00,,,0.00,meteohub,2013-07-29 11:04:00,
2013-07-29 07:10:00,56.7,56.1,30.06,SSW,208,0.0,0.0,98,0.00,,,0.00,meteohub,2013-07-29 11:10:00,
2013-07-29 07:15:00,56.8,56.3,30.07,SSW,208,0.0,0.0,98,0.00,,,0.00,meteohub,2013-07-29 11:15:00,
2013-07-29 07:20:00,57.4,56.8,30.07,SSW,208,0.0,0.0,98,0.00,,,0.00,meteohub,2013-07-29 11:20:00,
2013-07-29 07:25:00,57.6,57.0,30.07,SSW,208,0.0,0.0,98,0.00,,,0.00,meteohub,2013-07-29 11:25:00,
2013-07-29 07:30:00,57.6,57.0,30.07,SSW,208,0.0,0.0,98,0.00,,,0.00,meteohub,2013-07-29 11:30:00,
2013-07-29 07:35:00,57.6,57.0,30.07,SSW,208,0.0,0.0,98,0.00,,,0.00,meteohub,2013-07-29 11:35:00,
2013-07-29 07:40:00,57.6,57.0,30.07,SSW,207,0.0,0.0,98,0.00,,,0.00,meteohub,2013-07-29 11:40:00,
2013-07-29 07:45:00,57.6,57.0,30.07,SSW,208,0.0,0.0,98,0.00,,,0.00,meteohub,2013-07-29 11:45:00,
2013-07-29 07:51:00,57.6,57.0,30.07,SSW,208,0.0,0.0,98,0.00,,,0.00,meteohub,2013-07-29 11:51:00,
2013-07-29 07:57:00,57.6,57.0,30.07,SSW,208,0.0,0.0,98,0.00,,,0.00,meteohub,2013-07-29 11:57:00,
2013-07-29 08:02:00,57.6,57.0,30.08,SSW,208,0.0,0.0,98,0.00,,,0.00,meteohub,2013-07-29 12:02:00,
2013-07-29 08:07:00,57.7,57.2,30.08,SSW,208,0.0,0.0,98,0.00,,,0.00,meteohub,2013-07-29 12:07:00,
2013-07-29 08:12:00,57.9,57.4,30.08,SSW,208,0.0,0.0,98,0.01,,,0.01,meteohub,2013-07-29 12:12:00,
2013-07-29 08:17:00,58.5,57.9,30.08,West,262,0.0,0.0,98,0.01,,,0.01,meteohub,2013-07-29 12:17:00,
2013-07-29 08:23:00,59.4,58.8,30.09,NNE,25,0.0,1.0,98,0.01,,,0.01,meteohub,2013-07-29 12:23:00,
2013-07-29 08:28:00,60.1,59.5,30.09,NNE,19,0.0,1.0,98,0.01,,,0.01,meteohub,2013-07-29 12:28:00,
2013-07-29 08:33:00,61.2,60.8,30.09,NE,53,0.0,2.0,99,0.01,,,0.01,meteohub,2013-07-29 12:33:00,
2013-07-29 08:38:00,61.3,60.8,30.09,NNE,29,0.0,2.0,98,0.01,,,0.01,meteohub,2013-07-29 12:38:00,
2013-07-29 08:43:00,61.9,61.3,30.09,NNE,25,1.0,2.0,98,0.01,,,0.01,meteohub,2013-07-29 12:43:00,
2013-07-29 08:48:00,62.1,61.2,30.09,NNE,25,0.0,1.0,97,0.01,,,0.01,meteohub,2013-07-29 12:48:00,
2013-07-29 08:53:00,62.8,61.9,30.09,NNE,25,0.0,2.0,97,0.01,,,0.01,meteohub,2013-07-29 12:53:00,
2013-07-29 08:58:00,63.7,62.6,30.09,NNE,26,0.0,2.0,96,0.01,,,0.01,meteohub,2013-07-29 12:58:00,
2013-07-29 09:03:00,64.2,61.9,30.10,NE,43,0.0,1.0,92,0.01,,,0.01,meteohub,2013-07-29 13:03:00,
2013-07-29 09:09:00,64.6,61.9,30.10,NE,37,1.0,2.0,91,0.00,,,0.01,meteohub,2013-07-29 13:09:00,
2013-07-29 09:14:00,64.8,61.5,30.10,NE,44,1.0,2.0,89,0.00,,,0.01,meteohub,2013-07-29 13:14:00,
2013-07-29 09:19:00,64.6,61.5,30.10,NNE,23,1.0,2.0,90,0.00,,,0.01,meteohub,2013-07-29 13:19:00,
2013-07-29 09:24:00,64.9,61.9,30.10,NNE,22,0.0,2.0,90,0.00,,,0.01,meteohub,2013-07-29 13:24:00,
2013-07-29 09:29:00,65.5,62.4,30.10,NNE,26,0.0,2.0,90,0.00,,,0.01,meteohub,2013-07-29 13:29:00,
2013-07-29 09:35:00,65.8,62.4,30.10,NNE,33,0.0,2.0,89,0.00,,,0.01,meteohub,2013-07-29 13:35:00,
2013-07-29 09:40:00,66.0,61.7,30.10,NNE,33,2.0,2.0,86,0.00,,,0.01,meteohub,2013-07-29 13:40:00,
2013-07-29 09:45:00,66.0,61.3,30.10,NE,49,4.0,4.0,85,0.00,,,0.01,meteohub,2013-07-29 13:45:00,
2013-07-29 09:50:00,66.2,61.5,30.10,NE,50,3.0,6.0,85,0.00,,,0.01,meteohub,2013-07-29 13:50:00,
2013-07-29 09:55:00,66.6,61.5,30.10,NNE,23,4.0,6.0,84,0.00,,,0.01,meteohub,2013-07-29 13:55:00,
2013-07-29 10:00:00,66.4,61.3,30.10,NE,49,2.0,6.0,84,0.00,,,0.01,meteohub,2013-07-29 14:00:00,
2013-07-29 10:05:00,66.6,61.5,30.10,North,8,2.0,4.0,84,0.00,,,0.01,meteohub,2013-07-29 14:05:00,
2013-07-29 10:10:00,67.1,62.1,30.10,NNE,18,0.0,4.0,84,0.00,,,0.01,meteohub,2013-07-29 14:10:00,
2013-07-29 10:15:00,68.0,62.2,30.11,North,5,0.0,4.0,82,0.00,,,0.01,meteohub,2013-07-29 14:15:00,
2013-07-29 10:20:00,69.3,61.3,30.10,ESE,103,0.0,4.0,76,0.00,,,0.01,meteohub,2013-07-29 14:20:00,
2013-07-29 10:26:00,69.6,60.6,30.10,NNE,16,0.0,4.0,73,0.00,,,0.01,meteohub,2013-07-29 14:26:00,
2013-07-29 10:31:00,69.6,61.3,30.10,SSW,204,2.0,5.0,75,0.00,,,0.01,meteohub,2013-07-29 14:31:00,
2013-07-29 10:36:00,70.0,61.7,30.10,SE,129,0.0,5.0,75,0.00,,,0.01,meteohub,2013-07-29 14:36:00,
2013-07-29 10:42:00,70.9,62.6,30.10,NE,56,0.0,5.0,75,0.00,,,0.01,meteohub,2013-07-29 14:42:00,
2013-07-29 10:47:00,71.6,61.7,30.10,South,169,0.0,4.0,71,0.00,,,0.01,meteohub,2013-07-29 14:47:00,
2013-07-29 10:52:00,72.1,62.2,30.11,WNW,300,1.0,3.0,71,0.00,,,0.01,meteohub,2013-07-29 14:52:00,
2013-07-29 10:57:00,72.3,62.8,30.11,NNE,18,1.0,2.0,72,0.00,,,0.01,meteohub,2013-07-29 14:57:00,
2013-07-29 11:02:00,73.2,62.8,30.11,SW,231,1.0,2.0,70,0.00,,,0.01,meteohub,2013-07-29 15:02:00,
2013-07-29 11:07:00,73.8,63.0,30.11,NW,317,0.0,2.0,69,0.00,,,0.01,meteohub,2013-07-29 15:07:00,
2013-07-29 11:12:00,74.1,64.6,30.11,SE,136,1.0,2.0,72,0.00,,,0.01,meteohub,2013-07-29 15:12:00,
2013-07-29 11:17:00,75.0,63.3,30.11,SSW,211,1.0,2.0,67,0.00,,,0.01,meteohub,2013-07-29 15:17:00,
2013-07-29 11:23:00,75.2,62.6,30.11,ENE,66,1.0,5.0,65,0.00,,,0.01,meteohub,2013-07-29 15:23:00,
2013-07-29 11:28:00,75.6,64.8,30.11,West,281,1.0,5.0,69,0.00,,,0.01,meteohub,2013-07-29 15:28:00,
2013-07-29 11:33:00,75.7,62.2,30.11,WSW,249,1.0,5.0,63,0.00,,,0.01,meteohub,2013-07-29 15:33:00,
2013-07-29 11:38:00,76.1,63.5,30.11,SSE,148,3.0,5.0,65,0.00,,,0.01,meteohub,2013-07-29 15:38:00,
2013-07-29 11:43:00,75.9,63.3,30.11,SW,235,0.0,5.0,65,0.00,,,0.01,meteohub,2013-07-29 15:43:00,
2013-07-29 11:48:00,75.9,64.6,30.11,South,183,4.0,5.0,68,0.00,,,0.01,meteohub,2013-07-29 15:48:00,
2013-07-29 11:53:00,75.7,64.0,30.11,NW,320,0.0,5.0,67,0.00,,,0.01,meteohub,2013-07-29 15:53:00,
2013-07-29 11:59:00,75.7,64.4,30.12,West,264,0.0,5.0,68,0.00,,,0.01,meteohub,2013-07-29 15:59:00,
2013-07-29 12:04:00,75.4,63.7,30.12,SW,225,0.0,5.0,67,0.00,,,0.01,meteohub,2013-07-29 16:04:00,
2013-07-29 12:09:00,75.6,63.0,30.12,NW,322,1.0,5.0,65,0.00,,,0.01,meteohub,2013-07-29 16:09:00,
2013-07-29 12:14:00,76.1,64.8,30.12,West,280,0.0,5.0,68,0.00,,,0.01,meteohub,2013-07-29 16:14:00,
2013-07-29 12:19:00,76.3,64.9,30.12,West,274,1.0,3.0,68,0.00,,,0.01,meteohub,2013-07-29 16:19:00,
2013-07-29 12:24:00,76.3,64.6,30.11,WNW,283,0.0,3.0,67,0.00,,,0.01,meteohub,2013-07-29 16:24:00,
2013-07-29 12:29:00,76.5,64.8,30.11,SSE,152,3.0,3.0,67,0.00,,,0.01,meteohub,2013-07-29 16:29:00,
2013-07-29 12:34:00,76.5,64.2,30.11,WNW,285,0.0,5.0,66,0.00,,,0.01,meteohub,2013-07-29 16:34:00,
2013-07-29 12:39:00,76.8,64.2,30.11,West,274,0.0,5.0,65,0.00,,,0.01,meteohub,2013-07-29 16:39:00,
2013-07-29 12:44:00,77.2,65.3,30.11,West,274,1.0,5.0,67,0.00,,,0.01,meteohub,2013-07-29 16:44:00,
2013-07-29 12:49:00,77.2,64.6,30.11,East,86,0.0,3.0,65,0.00,,,0.01,meteohub,2013-07-29 16:49:00,
2013-07-29 12:54:00,77.5,64.4,30.10,West,278,0.0,3.0,64,0.00,,,0.01,meteohub,2013-07-29 16:54:00,
2013-07-29 13:00:00,77.5,64.8,30.10,WSW,238,3.0,3.0,65,0.00,,,0.01,meteohub,2013-07-29 17:00:00,
2013-07-29 13:05:00,77.5,63.5,30.10,ENE,65,1.0,4.0,62,0.00,,,0.01,meteohub,2013-07-29 17:05:00,
2013-07-29 13:10:00,77.5,63.9,30.10,NNW,342,0.0,4.0,63,0.00,,,0.01,meteohub,2013-07-29 17:10:00,
2013-07-29 13:15:00,77.5,63.0,30.10,West,259,0.0,5.0,61,0.00,,,0.01,meteohub,2013-07-29 17:15:00,
2013-07-29 13:20:00,77.5,63.9,30.10,NW,307,0.0,5.0,63,0.00,,,0.01,meteohub,2013-07-29 17:20:00,
2013-07-29 13:25:00,77.4,64.2,30.10,NW,309,0.0,5.0,64,0.00,,,0.01,meteohub,2013-07-29 17:25:00,
2013-07-29 13:31:00,77.0,63.0,30.10,NNW,340,0.0,2.0,62,0.00,,,0.01,meteohub,2013-07-29 17:31:00,
2013-07-29 13:35:00,76.6,63.1,30.10,East,83,0.0,2.0,63,0.00,,,0.01,meteohub,2013-07-29 17:35:00,
2013-07-29 13:41:00,77.2,63.7,30.10,West,259,0.0,2.0,63,0.00,,,0.01,meteohub,2013-07-29 17:41:00,
2013-07-29 13:46:00,77.9,64.8,30.10,NNE,28,3.0,3.0,64,0.00,,,0.01,meteohub,2013-07-29 17:46:00,
2013-07-29 13:51:00,77.9,64.2,30.09,WNW,300,1.0,4.0,63,0.00,,,0.01,meteohub,2013-07-29 17:51:00,
2013-07-29 13:56:00,77.9,64.2,30.09,NW,323,0.0,4.0,63,0.00,,,0.01,meteohub,2013-07-29 17:56:00,
2013-07-29 14:01:00,78.3,64.2,30.09,NNE,20,0.0,4.0,62,0.00,,,0.01,meteohub,2013-07-29 18:01:00,
2013-07-29 14:07:00,78.6,63.5,30.09,NW,307,0.0,4.0,60,0.00,,,0.01,meteohub,2013-07-29 18:07:00,
2013-07-29 14:12:00,78.4,63.9,30.09,WNW,291,1.0,4.0,61,0.00,,,0.01,meteohub,2013-07-29 18:12:00,
2013-07-29 14:17:00,78.1,63.1,30.09,West,280,0.0,4.0,60,0.00,,,0.01,meteohub,2013-07-29 18:17:00,
2013-07-29 14:22:00,78.6,64.9,30.09,NW,310,2.0,2.0,63,0.00,,,0.01,meteohub,2013-07-29 18:22:00,
2013-07-29 14:27:00,78.6,64.6,30.09,North,357,0.0,2.0,62,0.00,,,0.01,meteohub,2013-07-29 18:27:00,
2013-07-29 14:32:00,78.8,64.8,30.09,NE,44,2.0,2.0,62,0.00,,,0.01,meteohub,2013-07-29 18:32:00,
2013-07-29 14:38:00,79.0,64.4,30.09,WNW,294,0.0,4.0,61,0.00,,,0.01,meteohub,2013-07-29 18:38:00,
2013-07-29 14:43:00,78.6,64.6,30.09,NE,45,0.0,4.0,62,0.00,,,0.01,meteohub,2013-07-29 18:43:00,
2013-07-29 14:48:00,79.0,64.8,30.09,WSW,246,1.0,4.0,62,0.00,,,0.01,meteohub,2013-07-29 18:48:00,
2013-07-29 14:54:00,78.8,63.7,30.09,NE,43,1.0,2.0,60,0.00,,,0.01,meteohub,2013-07-29 18:54:00,
2013-07-29 14:59:00,77.0,63.9,30.08,NNE,23,4.0,4.0,64,0.00,,,0.01,meteohub,2013-07-29 18:59:00,
2013-07-29 15:05:00,76.3,65.3,30.08,WNW,303,2.0,7.0,69,0.00,,,0.01,meteohub,2013-07-29 19:05:00,
2013-07-29 15:10:00,75.9,65.8,30.08,NNE,27,3.0,7.0,71,0.00,,,0.01,meteohub,2013-07-29 19:10:00,
2013-07-29 15:15:00,75.9,65.8,30.08,ENE,74,0.0,7.0,71,0.00,,,0.01,meteohub,2013-07-29 19:15:00,
2013-07-29 15:20:00,75.4,65.3,30.08,NNE,30,3.0,7.0,71,0.00,,,0.01,meteohub,2013-07-29 19:20:00,
2013-07-29 15:25:00,74.8,65.7,30.08,North,5,0.0,7.0,73,0.00,,,0.01,meteohub,2013-07-29 19:25:00,
2013-07-29 15:30:00,75.0,66.2,30.08,North,358,0.0,6.0,74,0.00,,,0.01,meteohub,2013-07-29 19:30:00,
2013-07-29 15:35:00,75.7,66.0,30.08,SSW,212,0.0,6.0,72,0.00,,,0.01,meteohub,2013-07-29 19:35:00,
2013-07-29 15:40:00,76.1,66.4,30.08,West,265,5.0,5.0,72,0.00,,,0.01,meteohub,2013-07-29 19:40:00,
2013-07-29 15:46:00,75.7,66.0,30.08,West,276,0.0,4.0,72,0.00,,,0.01,meteohub,2013-07-29 19:46:00,
2013-07-29 15:51:00,75.6,65.8,30.08,WSW,246,0.0,5.0,72,0.00,,,0.01,meteohub,2013-07-29 19:51:00,
2013-07-29 15:55:00,75.6,65.8,30.08,WNW,294,0.0,6.0,72,0.00,,,0.01,meteohub,2013-07-29 19:55:00,
2013-07-29 16:01:00,75.4,65.7,30.08,South,190,1.0,6.0,72,0.00,,,0.01,meteohub,2013-07-29 20:01:00,
2013-07-29 16:06:00,75.0,65.3,30.08,SSW,197,2.0,3.0,72,0.00,,,0.01,meteohub,2013-07-29 20:06:00,
2013-07-29 16:11:00,75.0,66.2,30.07,West,281,0.0,6.0,74,0.00,,,0.01,meteohub,2013-07-29 20:11:00,
2013-07-29 16:16:00,74.8,66.4,30.08,SSW,210,1.0,6.0,75,0.00,,,0.01,meteohub,2013-07-29 20:16:00,
2013-07-29 16:22:00,74.5,65.3,30.08,SE,145,0.0,6.0,73,0.00,,,0.01,meteohub,2013-07-29 20:22:00,
2013-07-29 16:27:00,74.5,65.7,30.07,SSE,167,0.0,6.0,74,0.00,,,0.01,meteohub,2013-07-29 20:27:00,
2013-07-29 16:32:00,74.8,65.1,30.07,SW,236,1.0,6.0,72,0.00,,,0.01,meteohub,2013-07-29 20:32:00,
2013-07-29 16:37:00,74.8,65.7,30.07,West,278,0.0,5.0,73,0.00,,,0.01,meteohub,2013-07-29 20:37:00,
2013-07-29 16:42:00,74.8,65.1,30.08,SSW,211,1.0,5.0,72,0.00,,,0.01,meteohub,2013-07-29 20:42:00,
2013-07-29 16:47:00,74.8,65.7,30.08,SSE,148,0.0,6.0,73,0.00,,,0.01,meteohub,2013-07-29 20:47:00,
2013-07-29 16:52:00,75.0,66.2,30.08,SSW,211,1.0,6.0,74,0.00,,,0.01,meteohub,2013-07-29 20:52:00,
2013-07-29 16:57:00,75.0,65.8,30.08,SW,217,2.0,6.0,73,0.00,,,0.01,meteohub,2013-07-29 20:57:00,
2013-07-29 17:02:00,75.0,66.2,30.08,SE,145,0.0,6.0,74,0.00,,,0.01,meteohub,2013-07-29 21:02:00,
2013-07-29 17:07:00,74.7,66.2,30.08,SE,134,0.0,6.0,75,0.00,,,0.01,meteohub,2013-07-29 21:07:00,
2013-07-29 17:14:00,74.1,66.0,30.08,SSW,195,0.0,3.0,76,0.00,,,0.01,meteohub,2013-07-29 21:14:00,
2013-07-29 17:19:00,73.9,66.2,30.08,NNE,14,0.0,4.0,77,0.00,,,0.01,meteohub,2013-07-29 21:19:00,
2013-07-29 17:24:00,73.9,66.6,30.08,NNE,24,3.0,4.0,78,0.00,,,0.01,meteohub,2013-07-29 21:24:00,
2013-07-29 17:29:00,73.8,66.9,30.08,NW,311,0.0,4.0,79,0.00,,,0.01,meteohub,2013-07-29 21:29:00,
2013-07-29 17:34:00,73.8,66.4,30.08,North,0,0.0,3.0,78,0.00,,,0.01,meteohub,2013-07-29 21:34:00,
2013-07-29 17:39:00,73.9,66.6,30.08,NW,309,1.0,3.0,78,0.00,,,0.01,meteohub,2013-07-29 21:39:00,
2013-07-29 17:44:00,74.1,66.4,30.09,NNE,14,1.0,2.0,77,0.00,,,0.01,meteohub,2013-07-29 21:44:00,
2013-07-29 17:49:00,74.1,66.0,30.09,East,82,0.0,2.0,76,0.00,,,0.01,meteohub,2013-07-29 21:49:00,
2013-07-29 17:54:00,73.9,65.8,30.09,SW,214,0.0,4.0,76,0.00,,,0.01,meteohub,2013-07-29 21:54:00,
2013-07-29 18:00:00,73.9,65.8,30.09,SW,221,2.0,4.0,76,0.00,,,0.01,meteohub,2013-07-29 22:00:00,
2013-07-29 18:05:00,73.8,65.7,30.09,SSE,152,1.0,4.0,76,0.00,,,0.01,meteohub,2013-07-29 22:05:00,
2013-07-29 18:11:00,73.8,66.0,30.09,ENE,69,0.0,3.0,77,0.00,,,0.01,meteohub,2013-07-29 22:11:00,
2013-07-29 18:16:00,74.1,66.4,30.09,ESE,117,0.0,3.0,77,0.00,,,0.01,meteohub,2013-07-29 22:16:00,
2013-07-29 18:21:00,74.5,67.1,30.09,North,351,0.0,3.0,78,0.00,,,0.01,meteohub,2013-07-29 22:21:00,
2013-07-29 18:27:00,74.5,66.4,30.09,SW,222,2.0,4.0,76,0.00,,,0.01,meteohub,2013-07-29 22:27:00,
2013-07-29 18:32:00,74.1,66.0,30.09,South,176,2.0,4.0,76,0.00,,,0.01,meteohub,2013-07-29 22:32:00,
2013-07-29 18:37:00,73.8,66.0,30.09,SW,226,1.0,4.0,77,0.00,,,0.01,meteohub,2013-07-29 22:37:00,
2013-07-29 18:42:00,73.4,66.2,30.09,West,263,0.0,4.0,78,0.00,,,0.01,meteohub,2013-07-29 22:42:00,
2013-07-29 18:48:00,73.0,66.2,30.09,NW,311,1.0,4.0,79,0.00,,,0.01,meteohub,2013-07-29 22:48:00,
2013-07-29 18:53:00,72.9,66.0,30.09,WSW,253,0.0,4.0,79,0.00,,,0.01,meteohub,2013-07-29 22:53:00,
2013-07-29 18:58:00,72.9,65.7,30.09,NW,312,1.0,2.0,78,0.00,,,0.01,meteohub,2013-07-29 22:58:00,
2013-07-29 19:03:00,73.0,64.9,30.09,SSW,212,0.0,4.0,76,0.00,,,0.01,meteohub,2013-07-29 23:03:00,
2013-07-29 19:08:00,73.2,65.1,30.09,South,176,0.0,4.0,76,0.00,,,0.01,meteohub,2013-07-29 23:08:00,
2013-07-29 19:13:00,73.0,64.6,30.10,South,188,3.0,4.0,75,0.00,,,0.01,meteohub,2013-07-29 23:13:00,
2013-07-29 19:18:00,72.9,64.8,30.10,SW,215,0.0,3.0,76,0.00,,,0.01,meteohub,2013-07-29 23:18:00,
2013-07-29 19:23:00,72.5,64.9,30.10,South,176,0.0,3.0,77,0.00,,,0.01,meteohub,2013-07-29 23:23:00,
2013-07-29 19:32:00,72.1,65.3,30.11,South,176,0.0,1.0,79,0.00,,,0.01,meteohub,2013-07-29 23:32:00,
2013-07-29 19:37:00,72.0,65.1,30.10,South,176,0.0,1.0,79,0.00,,,0.01,meteohub,2013-07-29 23:37:00,
2013-07-29 19:42:00,71.8,64.6,30.10,South,176,0.0,0.0,78,0.00,,,0.01,meteohub,2013-07-29 23:42:00,
2013-07-29 19:47:00,71.4,64.9,30.11,South,176,0.0,0.0,80,0.00,,,0.01,meteohub,2013-07-29 23:47:00,
2013-07-29 19:52:00,71.2,64.8,30.10,SE,139,0.0,0.0,80,0.00,,,0.01,meteohub,2013-07-29 23:52:00,
2013-07-29 19:57:00,71.1,64.6,30.11,East,93,2.0,0.0,80,0.00,,,0.01,meteohub,2013-07-29 23:57:00,
2013-07-29 20:02:00,70.7,65.7,30.12,NE,41,0.0,2.0,84,0.00,,,0.01,meteohub,2013-07-30 00:02:00,
2013-07-29 20:07:00,70.3,65.7,30.12,NE,37,0.0,2.0,85,0.00,,,0.00,meteohub,2013-07-30 00:07:00,
2013-07-29 20:12:00,70.0,65.3,30.12,NE,39,0.0,2.0,85,0.00,,,0.00,meteohub,2013-07-30 00:12:00,
2013-07-29 20:18:00,70.0,65.3,30.12,SE,132,0.0,2.0,85,0.00,,,0.00,meteohub,2013-07-30 00:18:00,
2013-07-29 20:23:00,70.0,64.9,30.12,ENE,60,0.0,2.0,84,0.00,,,0.00,meteohub,2013-07-30 00:23:00,
2013-07-29 20:28:00,70.2,64.4,30.12,ENE,61,0.0,2.0,82,0.00,,,0.00,meteohub,2013-07-30 00:28:00,
2013-07-29 20:33:00,70.2,64.0,30.12,NNE,30,1.0,2.0,81,0.00,,,0.00,meteohub,2013-07-30 00:33:00,
2013-07-29 20:38:00,70.0,63.9,30.13,NNE,16,0.0,2.0,81,0.00,,,0.00,meteohub,2013-07-30 00:38:00,
2013-07-29 20:43:00,69.8,63.3,30.13,NNE,12,0.0,4.0,80,0.00,,,0.00,meteohub,2013-07-30 00:43:00,
2013-07-29 20:48:00,69.6,62.1,30.13,ESE,120,0.0,4.0,77,0.00,,,0.00,meteohub,2013-07-30 00:48:00,
2013-07-29 20:53:00,69.6,61.7,30.13,East,92,1.0,4.0,76,0.00,,,0.00,meteohub,2013-07-30 00:53:00,
2013-07-29 20:58:00,69.4,61.5,30.14,East,94,0.0,2.0,76,0.00,,,0.00,meteohub,2013-07-30 00:58:00,
2013-07-29 21:03:00,69.3,62.4,30.14,East,96,0.0,3.0,79,0.00,,,0.00,meteohub,2013-07-30 01:03:00,
2013-07-29 21:09:00,68.7,61.9,30.14,East,86,0.0,3.0,79,0.00,,,0.00,meteohub,2013-07-30 01:09:00,
2013-07-29 21:14:00,68.4,61.9,30.14,East,98,0.0,3.0,80,0.00,,,0.00,meteohub,2013-07-30 01:14:00,
2013-07-29 21:19:00,67.8,61.7,30.14,West,260,0.0,1.0,81,0.00,,,0.00,meteohub,2013-07-30 01:19:00,
2013-07-29 21:24:00,67.6,60.6,30.14,West,280,0.0,1.0,78,0.00,,,0.00,meteohub,2013-07-30 01:24:00,
2013-07-29 21:29:00,67.6,60.6,30.15,NNE,18,0.0,3.0,78,0.00,,,0.00,meteohub,2013-07-30 01:29:00,
2013-07-29 21:34:00,67.6,60.6,30.16,NE,34,0.0,3.0,78,0.00,,,0.00,meteohub,2013-07-30 01:34:00,
2013-07-29 21:39:00,67.5,60.4,30.16,NNE,33,1.0,3.0,78,0.00,,,0.00,meteohub,2013-07-30 01:39:00,
2013-07-29 21:44:00,67.3,60.3,30.16,NE,40,0.0,2.0,78,0.00,,,0.00,meteohub,2013-07-30 01:44:00,
2013-07-29 21:49:00,66.9,59.5,30.16,ENE,75,0.0,4.0,77,0.00,,,0.00,meteohub,2013-07-30 01:49:00,
2013-07-29 21:54:00,66.7,59.7,30.16,NNE,27,1.0,4.0,78,0.00,,,0.00,meteohub,2013-07-30 01:54:00,
2013-07-29 22:00:00,66.6,59.9,30.16,North,9,0.0,4.0,79,0.00,,,0.00,meteohub,2013-07-30 02:00:00,
2013-07-29 22:05:00,66.4,59.4,30.17,East,89,1.0,4.0,78,0.00,,,0.00,meteohub,2013-07-30 02:05:00,
2013-07-29 22:10:00,66.2,59.2,30.17,NNE,24,0.0,4.0,78,0.00,,,0.00,meteohub,2013-07-30 02:10:00,
2013-07-29 22:15:00,66.0,59.0,30.17,East,85,0.0,4.0,78,0.00,,,0.00,meteohub,2013-07-30 02:15:00,
2013-07-29 22:20:00,65.8,59.2,30.18,NE,53,2.0,4.0,79,0.00,,,0.00,meteohub,2013-07-30 02:20:00,
2013-07-29 22:25:00,65.7,59.0,30.18,East,86,1.0,3.0,79,0.00,,,0.00,meteohub,2013-07-30 02:25:00,
2013-07-29 22:30:00,65.7,59.7,30.18,ESE,103,0.0,3.0,81,0.00,,,0.00,meteohub,2013-07-30 02:30:00,
2013-07-29 22:35:00,65.1,58.8,30.18,NNE,33,0.0,3.0,80,0.00,,,0.00,meteohub,2013-07-30 02:35:00,
2013-07-29 22:41:00,64.9,59.0,30.18,NNE,33,0.0,3.0,81,0.00,,,0.00,meteohub,2013-07-30 02:41:00,
2013-07-29 22:46:00,64.4,58.8,30.18,NNE,33,0.0,3.0,82,0.00,,,0.00,meteohub,2013-07-30 02:46:00,
2013-07-29 22:51:00,64.0,58.8,30.18,NNE,33,0.0,0.0,83,0.00,,,0.00,meteohub,2013-07-30 02:51:00,
2013-07-29 22:56:00,63.5,57.9,30.19,NNE,33,0.0,0.0,82,0.00,,,0.00,meteohub,2013-07-30 02:56:00,
2013-07-29 23:01:00,63.3,57.7,30.18,East,80,0.0,2.0,82,0.00,,,0.00,meteohub,2013-07-30 03:01:00,
2013-07-29 23:07:00,63.1,57.6,30.18,West,266,0.0,2.0,82,0.00,,,0.00,meteohub,2013-07-30 03:07:00,
2013-07-29 23:12:00,63.1,57.6,30.18,SSW,212,0.0,2.0,82,0.00,,,0.00,meteohub,2013-07-30 03:12:00,
2013-07-29 23:17:00,63.1,57.9,30.18,East,101,0.0,2.0,83,0.00,,,0.00,meteohub,2013-07-30 03:17:00,
2013-07-29 23:22:00,63.0,57.7,30.18,SW,231,0.0,2.0,83,0.00,,,0.00,meteohub,2013-07-30 03:22:00,
2013-07-29 23:28:00,62.4,57.6,30.19,SW,231,0.0,1.0,84,0.00,,,0.00,meteohub,2013-07-30 03:28:00,
2013-07-29 23:33:00,62.1,57.6,30.18,SW,221,0.0,1.0,85,0.00,,,0.00,meteohub,2013-07-30 03:33:00,
2013-07-29 23:38:00,61.9,57.0,30.18,South,188,0.0,2.0,84,0.00,,,0.00,meteohub,2013-07-30 03:38:00,
2013-07-29 23:43:00,62.1,57.2,30.18,SSW,210,0.0,2.0,84,0.00,,,0.00,meteohub,2013-07-30 03:43:00,
2013-07-29 23:48:00,61.9,57.4,30.18,SSW,210,1.0,2.0,85,0.00,,,0.00,meteohub,2013-07-30 03:48:00,
2013-07-29 23:53:00,61.7,56.8,30.18,SSW,210,0.0,2.0,84,0.00,,,0.00,meteohub,2013-07-30 03:53:00,
2013-07-29 23:58:00,61.5,57.0,30.18,SSW,210,0.0,2.0,85,0.00,,,0.00,meteohub,2013-07-30 03:58:00,